createdAt,value
2018-10-21T00:00:34.900Z,0.00
2018-10-21T00:01:35.073Z,0.00
2018-10-21T00:02:35.206Z,0.00
2018-10-21T00:03:35.338Z,0.00
2018-10-21T00:04:35.533Z,0.00
2018-10-21T00:05:35.673Z,0.00
2018-10-21T00:06:35.842Z,0.00
2018-10-21T00:07:35.934Z,0.00
2018-10-21T00:08:36.080Z,0.00
2018-10-21T00:09:36.160Z,0.00
2018-10-21T00:10:36.280Z,0.00
2018-10-21T00:11:36.360Z,0.00
2018-10-21T00:12:36.645Z,0.00
2018-10-21T00:13:37.064Z,0.00
2018-10-21T00:14:36.984Z,0.00
2018-10-21T00:15:37.474Z,0.00
2018-10-21T00:16:38.032Z,0.00
2018-10-21T00:17:37.807Z,0.00
2018-10-21T00:18:38.400Z,0.00
2018-10-21T00:19:38.517Z,0.00
2018-10-21T00:20:38.335Z,0.00
2018-10-21T00:21:38.950Z,0.00
2018-10-21T00:22:39.028Z,0.00
2018-10-21T00:23:39.119Z,0.00
2018-10-21T00:24:39.134Z,0.00
2018-10-21T00:25:39.217Z,0.00
2018-10-21T00:26:39.083Z,0.00
2018-10-21T00:27:39.374Z,0.00
2018-10-21T00:29:39.667Z,0.00
2018-10-21T00:30:39.945Z,0.00
2018-10-21T00:31:40.236Z,0.00
2018-10-21T00:32:40.528Z,0.00
2018-10-21T00:33:40.765Z,0.00
2018-10-21T00:34:41.053Z,0.00
2018-10-21T00:35:41.465Z,0.00
2018-10-21T00:36:41.736Z,0.00
2018-10-21T00:37:42.027Z,0.00
2018-10-21T00:38:42.510Z,0.00
2018-10-21T00:39:43.093Z,0.00
2018-10-21T00:40:42.874Z,0.00
2018-10-21T00:41:43.155Z,0.00
2018-10-21T00:42:43.553Z,0.00
2018-10-21T00:43:43.983Z,0.00
2018-10-21T00:44:44.322Z,0.00
2018-10-21T00:45:44.611Z,0.00
2018-10-21T00:46:44.940Z,0.00
2018-10-21T00:47:45.266Z,0.00
2018-10-21T00:48:45.746Z,0.00
2018-10-21T00:49:46.017Z,0.00
2018-10-21T00:50:46.292Z,0.00
2018-10-21T00:51:46.592Z,0.00
2018-10-21T00:52:46.889Z,0.00
2018-10-21T00:53:47.167Z,0.00
2018-10-21T00:54:47.486Z,0.00
2018-10-21T00:55:47.805Z,0.00
2018-10-21T00:56:48.305Z,0.00
2018-10-21T00:57:48.309Z,0.00
2018-10-21T00:58:48.375Z,0.00
2018-10-21T00:59:48.412Z,0.00
2018-10-21T01:00:48.503Z,0.00
2018-10-21T01:01:48.652Z,0.00
2018-10-21T01:02:48.842Z,0.00
2018-10-21T01:03:48.960Z,0.00
2018-10-21T01:04:49.080Z,0.00
2018-10-21T01:05:49.264Z,0.00
2018-10-21T01:06:49.436Z,0.00
2018-10-21T01:07:49.595Z,0.00
2018-10-21T01:08:49.793Z,0.00
2018-10-21T01:09:49.918Z,0.00
2018-10-21T01:10:50.091Z,0.00
2018-10-21T01:11:50.238Z,0.00
2018-10-21T01:12:50.389Z,0.00
2018-10-21T01:13:50.546Z,0.00
2018-10-21T01:14:50.726Z,0.00
2018-10-21T01:15:50.928Z,0.00
2018-10-21T01:16:51.111Z,0.00
2018-10-21T01:17:51.189Z,0.00
2018-10-21T01:18:51.356Z,0.00
2018-10-21T01:19:51.508Z,0.00
2018-10-21T01:20:51.629Z,0.00
2018-10-21T01:21:51.732Z,0.00
2018-10-21T01:22:51.912Z,0.00
2018-10-21T01:23:52.249Z,0.00
2018-10-21T01:24:52.353Z,0.00
2018-10-21T01:25:52.435Z,0.00
2018-10-21T01:26:52.519Z,0.00
2018-10-21T01:27:52.602Z,0.00
2018-10-21T01:28:52.699Z,0.00
2018-10-21T01:29:52.777Z,0.00
2018-10-21T01:30:52.863Z,0.00
2018-10-21T01:31:52.946Z,0.00
2018-10-21T01:32:53.015Z,0.00
2018-10-21T01:33:53.106Z,0.00
2018-10-21T01:34:53.203Z,0.00
2018-10-21T01:35:53.302Z,0.00
2018-10-21T01:36:53.523Z,0.00
2018-10-21T01:37:53.567Z,0.00
2018-10-21T01:38:53.574Z,0.00
2018-10-21T01:39:53.651Z,0.00
2018-10-21T01:41:54.042Z,0.00
2018-10-21T01:42:54.332Z,0.00
2018-10-21T01:43:54.313Z,0.00
2018-10-21T01:44:54.633Z,0.00
2018-10-21T01:45:54.892Z,0.00
2018-10-21T01:46:54.896Z,0.00
2018-10-21T01:47:55.296Z,0.00
2018-10-21T01:48:55.161Z,0.00
2018-10-21T01:49:55.688Z,0.00
2018-10-21T01:50:55.489Z,0.00
2018-10-21T01:51:55.877Z,0.00
2018-10-21T01:52:56.156Z,0.00
2018-10-21T01:53:56.468Z,0.00
2018-10-21T01:54:56.761Z,0.00
2018-10-21T01:55:57.104Z,0.00
2018-10-21T01:56:57.431Z,0.00
2018-10-21T01:57:57.680Z,0.00
2018-10-21T01:58:57.762Z,0.00
2018-10-21T01:59:58.067Z,0.00
2018-10-21T02:00:58.355Z,0.00
2018-10-21T02:01:58.781Z,0.00
2018-10-21T02:02:59.182Z,0.00
2018-10-21T02:03:59.204Z,0.00
2018-10-21T02:04:59.504Z,0.00
2018-10-21T02:05:59.792Z,0.00
2018-10-21T02:07:00.092Z,0.00
2018-10-21T02:08:00.353Z,0.00
2018-10-21T02:09:00.766Z,0.00
2018-10-21T02:10:01.069Z,0.00
2018-10-21T02:11:01.564Z,0.00
2018-10-21T02:12:01.919Z,0.00
2018-10-21T02:13:02.548Z,0.00
2018-10-21T02:14:02.312Z,0.00
2018-10-21T02:15:02.864Z,0.00
2018-10-21T02:16:03.339Z,0.00
2018-10-21T02:17:03.977Z,0.00
2018-10-21T02:18:04.140Z,0.00
2018-10-21T02:19:04.292Z,0.00
2018-10-21T02:20:04.447Z,0.00
2018-10-21T02:21:04.806Z,0.00
2018-10-21T02:22:04.909Z,0.00
2018-10-21T02:24:05.168Z,0.00
2018-10-21T02:25:05.351Z,0.00
2018-10-21T02:26:05.737Z,0.00
2018-10-21T02:27:05.872Z,0.00
2018-10-21T02:28:05.959Z,0.00
2018-10-21T02:29:06.053Z,0.00
2018-10-21T02:30:06.202Z,0.00
2018-10-21T02:31:06.427Z,0.00
2018-10-21T02:32:06.572Z,0.00
2018-10-21T02:33:06.792Z,0.00
2018-10-21T02:34:06.995Z,0.00
2018-10-21T02:35:07.104Z,0.00
2018-10-21T02:36:07.449Z,0.00
2018-10-21T02:37:07.512Z,0.00
2018-10-21T02:38:07.591Z,0.00
2018-10-21T02:39:07.748Z,0.00
2018-10-21T02:40:07.763Z,0.00
2018-10-21T02:41:07.845Z,0.00
2018-10-21T02:42:08.000Z,0.00
2018-10-21T02:43:07.797Z,0.00
2018-10-21T02:44:08.373Z,0.00
2018-10-21T02:45:08.905Z,0.00
2018-10-21T02:46:08.660Z,0.00
2018-10-21T02:47:09.348Z,0.00
2018-10-21T02:48:09.420Z,0.00
2018-10-21T02:49:09.447Z,0.00
2018-10-21T02:50:09.821Z,0.00
2018-10-21T02:51:09.844Z,0.00
2018-10-21T02:52:09.780Z,0.00
2018-10-21T02:53:10.056Z,0.00
2018-10-21T02:54:10.353Z,0.00
2018-10-21T02:55:10.706Z,0.00
2018-10-21T02:56:11.221Z,0.00
2018-10-21T02:57:11.221Z,0.00
2018-10-21T02:58:11.433Z,0.00
2018-10-21T02:59:11.802Z,0.00
2018-10-21T03:00:12.100Z,0.00
2018-10-21T03:01:12.436Z,0.00
2018-10-21T03:02:12.749Z,0.00
2018-10-21T03:03:13.091Z,0.00
2018-10-21T03:04:13.628Z,0.00
2018-10-21T03:05:13.550Z,0.00
2018-10-21T03:06:13.848Z,0.00
2018-10-21T03:07:14.149Z,0.00
2018-10-21T03:08:14.430Z,0.00
2018-10-21T03:09:14.875Z,0.00
2018-10-21T03:10:15.404Z,0.00
2018-10-21T03:11:15.188Z,0.00
2018-10-21T03:12:15.482Z,0.00
2018-10-21T03:13:15.779Z,0.00
2018-10-21T03:14:16.379Z,0.00
2018-10-21T03:15:16.363Z,0.00
2018-10-21T03:16:16.590Z,0.00
2018-10-21T03:17:16.901Z,0.00
2018-10-21T03:18:17.392Z,0.00
2018-10-21T03:19:17.764Z,0.00
2018-10-21T03:20:18.141Z,0.00
2018-10-21T03:21:18.866Z,0.00
2018-10-21T03:22:18.848Z,0.00
2018-10-21T03:23:18.990Z,0.00
2018-10-21T03:24:19.131Z,0.00
2018-10-21T03:25:19.255Z,0.00
2018-10-21T03:26:19.418Z,0.00
2018-10-21T03:27:19.676Z,0.00
2018-10-21T03:28:19.719Z,0.00
2018-10-21T03:29:19.885Z,0.00
2018-10-21T03:30:20.052Z,0.00
2018-10-21T03:31:20.226Z,0.00
2018-10-21T03:32:20.408Z,0.00
2018-10-21T03:33:20.794Z,0.00
2018-10-21T03:34:20.774Z,0.00
2018-10-21T03:35:20.939Z,0.00
2018-10-21T03:36:21.168Z,0.00
2018-10-21T03:37:21.300Z,0.00
2018-10-21T03:38:21.422Z,0.00
2018-10-21T03:39:21.487Z,0.00
2018-10-21T03:40:21.626Z,0.00
2018-10-21T03:41:21.707Z,0.00
2018-10-21T03:42:21.922Z,0.00
2018-10-21T03:43:21.994Z,0.00
2018-10-21T03:44:22.199Z,0.00
2018-10-21T03:45:22.293Z,0.00
2018-10-21T03:46:22.415Z,0.00
2018-10-21T03:47:22.562Z,0.00
2018-10-21T03:48:22.668Z,0.00
2018-10-21T03:49:22.786Z,0.00
2018-10-21T03:50:22.905Z,0.00
2018-10-21T03:51:23.142Z,0.00
2018-10-21T03:52:23.249Z,0.00
2018-10-21T03:53:23.019Z,0.00
2018-10-21T03:54:23.708Z,0.00
2018-10-21T03:55:23.813Z,0.00
2018-10-21T03:56:23.839Z,0.00
2018-10-21T03:57:23.950Z,0.00
2018-10-21T03:58:24.153Z,0.00
2018-10-21T03:59:24.060Z,0.00
2018-10-21T04:00:24.392Z,0.00
2018-10-21T04:01:24.705Z,0.00
2018-10-21T04:02:25.103Z,0.00
2018-10-21T04:03:25.394Z,0.00
2018-10-21T04:04:25.994Z,0.00
2018-10-21T04:05:25.934Z,0.00
2018-10-21T04:06:26.214Z,0.00
2018-10-21T04:07:26.501Z,0.00
2018-10-21T04:08:26.961Z,0.00
2018-10-21T04:09:27.287Z,0.00
2018-10-21T04:10:27.725Z,0.00
2018-10-21T04:11:28.132Z,0.00
2018-10-21T04:12:28.469Z,0.00
2018-10-21T04:13:28.777Z,0.00
2018-10-21T04:14:29.328Z,0.00
2018-10-21T04:15:29.133Z,0.00
2018-10-21T04:16:29.456Z,0.00
2018-10-21T04:17:29.905Z,0.00
2018-10-21T04:18:30.209Z,0.00
2018-10-21T04:19:30.503Z,0.00
2018-10-21T04:20:30.777Z,0.00
2018-10-21T04:21:31.079Z,0.00
2018-10-21T04:22:31.392Z,0.00
2018-10-21T04:23:31.877Z,0.00
2018-10-21T04:24:32.165Z,0.00
2018-10-21T04:25:32.831Z,0.00
2018-10-21T04:26:32.750Z,0.00
2018-10-21T04:27:33.310Z,0.00
2018-10-21T04:28:33.373Z,0.00
2018-10-21T04:29:33.530Z,0.00
2018-10-21T04:30:33.670Z,0.00
2018-10-21T04:31:34.005Z,0.00
2018-10-21T04:32:34.199Z,0.00
2018-10-21T04:33:34.648Z,0.00
2018-10-21T04:34:35.047Z,0.00
2018-10-21T04:35:35.342Z,0.00
2018-10-21T04:36:35.482Z,0.00
2018-10-21T04:37:35.673Z,0.00
2018-10-21T04:38:36.116Z,0.00
2018-10-21T04:39:36.463Z,0.00
2018-10-21T04:40:36.623Z,0.00
2018-10-21T04:41:36.732Z,0.00
2018-10-21T04:42:36.837Z,0.00
2018-10-21T04:43:36.620Z,0.00
2018-10-21T04:44:37.231Z,0.00
2018-10-21T04:45:37.356Z,0.00
2018-10-21T04:47:37.459Z,0.00
2018-10-21T04:48:37.544Z,0.00
2018-10-21T04:49:37.619Z,0.00
2018-10-21T04:50:37.749Z,0.00
2018-10-21T04:51:37.831Z,0.00
2018-10-21T04:53:37.946Z,0.00
2018-10-21T04:54:37.950Z,0.00
2018-10-21T04:55:38.627Z,0.00
2018-10-21T04:56:38.709Z,0.00
2018-10-21T04:57:38.799Z,0.00
2018-10-21T04:58:38.870Z,0.00
2018-10-21T04:59:38.968Z,0.00
2018-10-21T05:00:39.108Z,0.00
2018-10-21T05:01:39.152Z,0.00
2018-10-21T05:02:39.045Z,0.00
2018-10-21T05:03:39.667Z,0.00
2018-10-21T05:04:39.711Z,0.00
2018-10-21T05:05:39.570Z,0.00
2018-10-21T05:06:39.865Z,0.00
2018-10-21T05:07:40.241Z,0.00
2018-10-21T05:08:40.484Z,0.00
2018-10-21T05:09:41.031Z,0.00
2018-10-21T05:10:40.975Z,0.00
2018-10-21T05:11:41.267Z,0.00
2018-10-21T05:12:41.535Z,0.00
2018-10-21T05:13:41.949Z,0.00
2018-10-21T05:14:42.273Z,0.00
2018-10-21T05:15:42.923Z,0.00
2018-10-21T05:16:42.871Z,0.00
2018-10-21T05:17:43.100Z,0.00
2018-10-21T05:18:43.393Z,0.00
2018-10-21T05:19:43.687Z,0.00
2018-10-21T05:20:44.005Z,1.00
2018-10-21T05:21:44.293Z,1.00
2018-10-21T05:22:44.597Z,2.00
2018-10-21T05:23:44.931Z,2.00
2018-10-21T05:24:45.184Z,2.00
2018-10-21T05:25:45.779Z,2.00
2018-10-21T05:26:45.599Z,3.00
2018-10-21T05:27:45.892Z,4.00
2018-10-21T05:28:46.375Z,5.00
2018-10-21T05:29:46.691Z,5.00
2018-10-21T05:30:47.006Z,6.00
2018-10-21T05:31:47.584Z,8.00
2018-10-21T05:32:47.354Z,10.00
2018-10-21T05:33:47.729Z,11.00
2018-10-21T05:34:48.251Z,13.00
2018-10-21T05:35:48.373Z,16.00
2018-10-21T05:36:48.385Z,20.00
2018-10-21T05:37:48.503Z,23.00
2018-10-21T05:38:48.626Z,28.00
2018-10-21T05:39:48.767Z,35.00
2018-10-21T05:40:48.964Z,41.00
2018-10-21T05:41:49.143Z,48.00
2018-10-21T05:42:49.348Z,58.00
2018-10-21T05:43:49.771Z,67.00
2018-10-21T05:44:49.958Z,79.00
2018-10-21T05:45:50.106Z,91.00
2018-10-21T05:46:50.405Z,102.00
2018-10-21T05:47:50.670Z,114.00
2018-10-21T05:48:50.849Z,127.00
2018-10-21T05:49:50.959Z,145.00
2018-10-21T05:50:51.056Z,163.00
2018-10-21T05:51:51.164Z,184.00
2018-10-21T05:52:51.270Z,205.00
2018-10-21T05:53:51.400Z,228.00
2018-10-21T05:54:51.506Z,252.00
2018-10-21T05:55:51.675Z,279.00
2018-10-21T05:56:51.782Z,305.00
2018-10-21T05:57:51.955Z,334.00
2018-10-21T05:58:52.037Z,366.00
2018-10-21T05:59:52.208Z,398.00
2018-10-21T06:00:52.332Z,431.00
2018-10-21T06:01:52.463Z,464.00
2018-10-21T06:02:52.616Z,498.00
2018-10-21T06:03:52.642Z,528.00
2018-10-21T06:04:52.729Z,560.00
2018-10-21T06:05:53.235Z,594.00
2018-10-21T06:06:53.324Z,628.00
2018-10-21T06:07:53.431Z,660.00
2018-10-21T06:08:53.579Z,689.00
2018-10-21T06:09:53.796Z,721.00
2018-10-21T06:10:53.840Z,756.00
2018-10-21T06:11:53.967Z,792.00
2018-10-21T06:12:54.013Z,825.00
2018-10-21T06:13:53.946Z,856.00
2018-10-21T06:14:54.388Z,891.00
2018-10-21T06:15:54.815Z,930.00
2018-10-21T06:16:55.125Z,968.00
2018-10-21T06:17:55.075Z,989.00
2018-10-21T06:18:55.365Z,1022.00
2018-10-21T06:19:55.443Z,1062.00
2018-10-21T06:20:55.925Z,1108.00
2018-10-21T06:21:55.793Z,1152.00
2018-10-21T06:22:56.133Z,1201.00
2018-10-21T06:23:56.553Z,1258.00
2018-10-21T06:24:56.837Z,1304.00
2018-10-21T06:25:57.470Z,1349.00
2018-10-21T06:26:57.405Z,1408.00
2018-10-21T06:27:57.800Z,1477.00
2018-10-21T06:29:58.127Z,1600.00
2018-10-21T06:30:58.466Z,1669.00
2018-10-21T06:31:58.778Z,1724.00
2018-10-21T06:32:59.227Z,1788.00
2018-10-21T06:33:59.470Z,1833.00
2018-10-21T06:34:59.814Z,1872.00
2018-10-21T06:36:00.445Z,1919.00
2018-10-21T06:37:00.274Z,1964.00
2018-10-21T06:38:00.540Z,2012.00
2018-10-21T06:39:01.014Z,2061.00
2018-10-21T06:40:00.956Z,2108.00
2018-10-21T06:41:01.110Z,2151.00
2018-10-21T06:42:01.194Z,2198.00
2018-10-21T06:43:01.799Z,2241.00
2018-10-21T06:44:01.847Z,2288.00
2018-10-21T06:45:02.190Z,2340.00
2018-10-21T06:46:02.306Z,2390.00
2018-10-21T06:47:02.162Z,2437.00
2018-10-21T06:48:02.791Z,2483.00
2018-10-21T06:49:02.603Z,2529.00
2018-10-21T06:50:03.355Z,2567.00
2018-10-21T06:51:03.445Z,2604.00
2018-10-21T06:52:03.577Z,2655.00
2018-10-21T06:53:03.759Z,2685.00
2018-10-21T06:54:03.919Z,2720.00
2018-10-21T06:55:06.847Z,2721.00
2018-10-21T06:56:04.503Z,2689.00
2018-10-21T06:57:04.752Z,2621.00
2018-10-21T06:58:04.842Z,2506.00
2018-10-21T06:59:05.047Z,2768.00
2018-10-21T07:00:05.228Z,2952.00
2018-10-21T07:01:05.148Z,3024.00
2018-10-21T07:02:05.980Z,3079.00
2018-10-21T07:03:06.152Z,3159.00
2018-10-21T07:04:06.387Z,3191.00
2018-10-21T07:05:06.562Z,3106.00
2018-10-21T07:06:06.913Z,3101.00
2018-10-21T07:07:06.914Z,3114.00
2018-10-21T07:08:07.073Z,3204.00
2018-10-21T07:09:07.290Z,3319.00
2018-10-21T07:10:07.545Z,3302.00
2018-10-21T07:11:07.561Z,2880.00
2018-10-21T07:12:07.539Z,3205.00
2018-10-21T07:13:08.025Z,3459.00
2018-10-21T07:14:08.482Z,3498.00
2018-10-21T07:15:08.830Z,3569.00
2018-10-21T07:16:09.778Z,3666.00
2018-10-21T07:17:09.720Z,3672.00
2018-10-21T07:18:09.782Z,3451.00
2018-10-21T07:19:09.574Z,3700.00
2018-10-21T07:20:09.865Z,3651.00
2018-10-21T07:21:10.235Z,3583.00
2018-10-21T07:22:10.678Z,3559.00
2018-10-21T07:23:10.896Z,3539.00
2018-10-21T07:24:11.419Z,3488.00
2018-10-21T07:25:11.209Z,3559.00
2018-10-21T07:26:11.774Z,3723.00
2018-10-21T07:27:11.547Z,3837.00
2018-10-21T07:28:11.988Z,3882.00
2018-10-21T07:29:12.331Z,3897.00
2018-10-21T07:30:12.878Z,3947.00
2018-10-21T07:31:12.702Z,3971.00
2018-10-21T07:32:13.012Z,4016.00
2018-10-21T07:33:13.298Z,4185.00
2018-10-21T07:34:13.791Z,4332.00
2018-10-21T07:35:14.348Z,4388.00
2018-10-21T07:36:14.413Z,4465.00
2018-10-21T07:37:14.271Z,4562.00
2018-10-21T07:38:14.551Z,4351.00
2018-10-21T07:39:14.854Z,4716.00
2018-10-21T07:40:15.527Z,4747.00
2018-10-21T07:41:15.276Z,4800.00
2018-10-21T07:42:15.593Z,4524.00
2018-10-21T07:43:15.897Z,4789.00
2018-10-21T07:44:16.279Z,4854.00
2018-10-21T07:45:16.877Z,4734.00
2018-10-21T07:46:17.133Z,4754.00
2018-10-21T07:47:17.360Z,4401.00
2018-10-21T07:48:17.671Z,4885.00
2018-10-21T07:49:18.285Z,5252.00
2018-10-21T07:50:18.791Z,5486.00
2018-10-21T07:51:18.952Z,5650.00
2018-10-21T07:52:19.141Z,5733.00
2018-10-21T07:53:19.535Z,6632.00
2018-10-21T07:54:19.707Z,13445.00
2018-10-21T07:55:19.946Z,65536.00
2018-10-21T07:56:20.042Z,65536.00
2018-10-21T07:57:20.177Z,65536.00
2018-10-21T07:58:20.399Z,65536.00
2018-10-21T07:59:20.565Z,65536.00
2018-10-21T08:00:20.743Z,65536.00
2018-10-21T08:01:21.029Z,65536.00
2018-10-21T08:02:21.055Z,65536.00
2018-10-21T08:03:21.182Z,65536.00
2018-10-21T08:04:21.291Z,65536.00
2018-10-21T08:05:21.395Z,65536.00
2018-10-21T08:06:21.807Z,65536.00
2018-10-21T08:07:22.203Z,65536.00
2018-10-21T08:08:22.569Z,65536.00
2018-10-21T08:09:22.715Z,65536.00
2018-10-21T08:10:23.814Z,65536.00
2018-10-21T08:11:23.812Z,65536.00
2018-10-21T08:12:24.223Z,13065.00
2018-10-21T08:13:23.687Z,6815.00
2018-10-21T08:14:24.092Z,6408.00
2018-10-21T08:15:24.326Z,6265.00
2018-10-21T08:16:24.352Z,6188.00
2018-10-21T08:17:24.394Z,6240.00
2018-10-21T08:18:24.705Z,6329.00
2018-10-21T08:19:24.986Z,6464.00
2018-10-21T08:20:25.613Z,6697.00
2018-10-21T08:21:25.443Z,12517.00
2018-10-21T08:22:25.883Z,65536.00
2018-10-21T08:23:26.193Z,65536.00
2018-10-21T08:24:26.753Z,65536.00
2018-10-21T08:25:26.528Z,65536.00
2018-10-21T08:26:27.050Z,65536.00
2018-10-21T08:27:27.014Z,65536.00
2018-10-21T08:28:27.128Z,65536.00
2018-10-21T08:29:27.481Z,65536.00
2018-10-21T08:30:27.770Z,65536.00
2018-10-21T08:31:28.090Z,65536.00
2018-10-21T08:32:28.381Z,65536.00
2018-10-21T08:33:28.673Z,65536.00
2018-10-21T08:34:28.998Z,65536.00
2018-10-21T08:35:29.409Z,65536.00
2018-10-21T08:36:29.740Z,65536.00
2018-10-21T08:37:30.375Z,65536.00
2018-10-21T08:38:30.185Z,65536.00
2018-10-21T08:39:30.476Z,65536.00
2018-10-21T08:40:30.768Z,65536.00
2018-10-21T08:41:31.189Z,65536.00
2018-10-21T08:42:31.534Z,65536.00
2018-10-21T08:43:31.904Z,65536.00
2018-10-21T08:44:32.267Z,65536.00
2018-10-21T08:45:32.630Z,65536.00
2018-10-21T08:46:33.068Z,65536.00
2018-10-21T08:47:33.627Z,65536.00
2018-10-21T08:48:33.845Z,65536.00
2018-10-21T08:49:34.045Z,65536.00
2018-10-21T08:50:34.184Z,65536.00
2018-10-21T08:51:34.381Z,65536.00
2018-10-21T08:52:34.553Z,65536.00
2018-10-21T08:53:34.797Z,65536.00
2018-10-21T08:54:34.931Z,65536.00
2018-10-21T08:55:35.095Z,65536.00
2018-10-21T08:56:35.306Z,65536.00
2018-10-21T08:57:35.473Z,65536.00
2018-10-21T08:58:35.707Z,65536.00
2018-10-21T08:59:35.924Z,65536.00
2018-10-21T09:00:36.076Z,65536.00
2018-10-21T09:01:36.266Z,65536.00
2018-10-21T09:02:36.413Z,65536.00
2018-10-21T09:03:36.537Z,65536.00
2018-10-21T09:04:36.681Z,65536.00
2018-10-21T09:05:36.823Z,65536.00
2018-10-21T09:06:36.966Z,65536.00
2018-10-21T09:07:37.129Z,6520.00
2018-10-21T09:08:37.306Z,6356.00
2018-10-21T09:09:37.368Z,6902.00
2018-10-21T09:10:37.618Z,8406.00
2018-10-21T09:11:37.610Z,6604.00
2018-10-21T09:12:37.945Z,5980.00
2018-10-21T09:13:38.114Z,7361.00
2018-10-21T09:14:38.202Z,6782.00
2018-10-21T09:15:38.288Z,6509.00
2018-10-21T09:16:38.168Z,13642.00
2018-10-21T09:17:38.741Z,11839.00
2018-10-21T09:18:39.033Z,9818.00
2018-10-21T09:19:39.287Z,8181.00
2018-10-21T09:20:39.238Z,6543.00
2018-10-21T09:21:39.574Z,7294.00
2018-10-21T09:22:40.019Z,5972.00
2018-10-21T09:23:40.525Z,7141.00
2018-10-21T09:24:41.082Z,6095.00
2018-10-21T09:25:40.870Z,5897.00
2018-10-21T09:26:41.225Z,5798.00
2018-10-21T09:27:41.832Z,5852.00
2018-10-21T09:28:41.855Z,5871.00
2018-10-21T09:29:42.421Z,5846.00
2018-10-21T09:30:42.235Z,5880.00
2018-10-21T09:31:42.517Z,5903.00
2018-10-21T09:32:43.044Z,5924.00
2018-10-21T09:33:42.904Z,6061.00
2018-10-21T09:34:43.245Z,5806.00
2018-10-21T09:35:43.675Z,5943.00
2018-10-21T09:36:43.977Z,5932.00
2018-10-21T09:37:44.393Z,5928.00
2018-10-21T09:38:44.359Z,6015.00
2018-10-21T09:39:44.656Z,5866.00
2018-10-21T09:40:44.961Z,5873.00
2018-10-21T09:41:45.241Z,6070.00
2018-10-21T09:42:45.583Z,6342.00
2018-10-21T09:43:45.970Z,8343.00
2018-10-21T09:44:46.253Z,7538.00
2018-10-21T09:45:46.548Z,6386.00
2018-10-21T09:46:46.846Z,5888.00
2018-10-21T09:47:47.153Z,6131.00
2018-10-21T09:48:47.512Z,6030.00
2018-10-21T09:49:47.781Z,6058.00
2018-10-21T09:50:48.263Z,7134.00
2018-10-21T09:51:48.920Z,6688.00
2018-10-21T09:52:49.108Z,8401.00
2018-10-21T09:53:49.266Z,12031.00
2018-10-21T09:54:49.431Z,12117.00
2018-10-21T09:55:49.573Z,7849.00
2018-10-21T09:56:49.734Z,5961.00
2018-10-21T09:57:49.847Z,5932.00
2018-10-21T09:58:50.056Z,6106.00
2018-10-21T09:59:50.208Z,6077.00
2018-10-21T10:00:50.400Z,5954.00
2018-10-21T10:01:50.672Z,5993.00
2018-10-21T10:02:51.014Z,6033.00
2018-10-21T10:04:51.483Z,6142.00
2018-10-21T10:05:51.703Z,6133.00
2018-10-21T10:06:51.852Z,6190.00
2018-10-21T10:07:52.046Z,6649.00
2018-10-21T10:08:52.463Z,6243.00
2018-10-21T10:09:52.546Z,6466.00
2018-10-21T10:10:52.729Z,8229.00
2018-10-21T10:11:52.804Z,7427.00
2018-10-21T10:12:52.893Z,7293.00
2018-10-21T10:13:52.993Z,6516.00
2018-10-21T10:14:53.091Z,7608.00
2018-10-21T10:15:53.213Z,9768.00
2018-10-21T10:16:53.297Z,11103.00
2018-10-21T10:17:53.387Z,8318.00
2018-10-21T10:18:53.481Z,7599.00
2018-10-21T10:19:53.785Z,7148.00
2018-10-21T10:20:53.990Z,7466.00
2018-10-21T10:21:54.001Z,9537.00
2018-10-21T10:22:54.037Z,8867.00
2018-10-21T10:23:54.310Z,6693.00
2018-10-21T10:24:54.230Z,6745.00
2018-10-21T10:25:54.188Z,9673.00
2018-10-21T10:26:54.465Z,10491.00
2018-10-21T10:27:55.396Z,9518.00
2018-10-21T10:28:55.215Z,8774.00
2018-10-21T10:29:55.701Z,6680.00
2018-10-21T10:30:56.008Z,6461.00
2018-10-21T10:31:56.355Z,6463.00
2018-10-21T10:32:56.676Z,6619.00
2018-10-21T10:33:57.022Z,7024.00
2018-10-21T10:34:57.412Z,7100.00
2018-10-21T10:35:57.784Z,7474.00
2018-10-21T10:36:58.227Z,7466.00
2018-10-21T10:37:58.329Z,6967.00
2018-10-21T10:38:58.121Z,7279.00
2018-10-21T10:39:58.485Z,8497.00
2018-10-21T10:40:58.995Z,10238.00
2018-10-21T10:41:58.861Z,11837.00
2018-10-21T10:42:59.100Z,65536.00
2018-10-21T10:43:59.492Z,65536.00
2018-10-21T10:44:59.760Z,65536.00
2018-10-21T10:46:00.204Z,65536.00
2018-10-21T10:47:00.564Z,65536.00
2018-10-21T10:48:00.871Z,65536.00
2018-10-21T10:49:01.244Z,65536.00
2018-10-21T10:50:01.933Z,65536.00
2018-10-21T10:51:02.252Z,65536.00
2018-10-21T10:52:02.595Z,12859.00
2018-10-21T10:53:02.958Z,65536.00
2018-10-21T10:54:03.719Z,65536.00
2018-10-21T10:55:03.964Z,11618.00
2018-10-21T10:56:04.090Z,65536.00
2018-10-21T10:57:04.271Z,65536.00
2018-10-21T10:58:04.629Z,10573.00
2018-10-21T10:59:04.750Z,10104.00
2018-10-21T11:00:05.033Z,11389.00
2018-10-21T11:01:05.303Z,65536.00
2018-10-21T11:02:05.452Z,65536.00
2018-10-21T11:03:05.626Z,65536.00
2018-10-21T11:04:05.764Z,65536.00
2018-10-21T11:05:06.194Z,65536.00
2018-10-21T11:06:06.054Z,10356.00
2018-10-21T11:07:06.307Z,8236.00
2018-10-21T11:08:06.452Z,9321.00
2018-10-21T11:09:06.844Z,12162.00
2018-10-21T11:10:07.212Z,11320.00
2018-10-21T11:11:07.209Z,7697.00
2018-10-21T11:12:07.325Z,7349.00
2018-10-21T11:13:07.466Z,7856.00
2018-10-21T11:14:07.486Z,8850.00
2018-10-21T11:15:07.634Z,9170.00
2018-10-21T11:16:07.948Z,9723.00
2018-10-21T11:17:07.939Z,8462.00
2018-10-21T11:18:08.546Z,7942.00
2018-10-21T11:19:08.759Z,7646.00
2018-10-21T11:20:08.465Z,8020.00
2018-10-21T11:21:09.055Z,9887.00
2018-10-21T11:22:09.167Z,10817.00
2018-10-21T11:23:08.947Z,10806.00
2018-10-21T11:24:09.467Z,65536.00
2018-10-21T11:25:09.756Z,10327.00
2018-10-21T11:26:09.802Z,65536.00
2018-10-21T11:27:09.629Z,65536.00
2018-10-21T11:28:10.006Z,65536.00
2018-10-21T11:29:10.570Z,65536.00
2018-10-21T11:30:10.444Z,9598.00
2018-10-21T11:31:10.870Z,8647.00
2018-10-21T11:32:11.067Z,7991.00
2018-10-21T11:33:11.503Z,7818.00
2018-10-21T11:34:11.865Z,7549.00
2018-10-21T11:35:12.122Z,7570.00
2018-10-21T11:36:12.426Z,7395.00
2018-10-21T11:37:12.955Z,7522.00
2018-10-21T11:38:13.132Z,7583.00
2018-10-21T11:39:13.425Z,7418.00
2018-10-21T11:40:13.876Z,7197.00
2018-10-21T11:41:14.131Z,7096.00
2018-10-21T11:42:14.452Z,7071.00
2018-10-21T11:43:14.842Z,7021.00
2018-10-21T11:44:15.022Z,7021.00
2018-10-21T11:45:15.627Z,7052.00
2018-10-21T11:46:15.507Z,7173.00
2018-10-21T11:47:15.735Z,7558.00
2018-10-21T11:48:16.029Z,7786.00
2018-10-21T11:49:16.391Z,8353.00
2018-10-21T11:50:16.933Z,8878.00
2018-10-21T11:51:17.077Z,9557.00
2018-10-21T11:52:17.017Z,9813.00
2018-10-21T11:53:17.144Z,9980.00
2018-10-21T11:54:17.441Z,10166.00
2018-10-21T11:55:18.075Z,9457.00
2018-10-21T11:56:17.752Z,65536.00
2018-10-21T11:57:18.316Z,65536.00
2018-10-21T11:58:18.680Z,65536.00
2018-10-21T11:59:18.752Z,65536.00
2018-10-21T12:00:18.871Z,65536.00
2018-10-21T12:01:19.101Z,65536.00
2018-10-21T12:02:19.227Z,65536.00
2018-10-21T12:03:19.470Z,65536.00
2018-10-21T12:04:19.641Z,65536.00
2018-10-21T12:05:19.885Z,65536.00
2018-10-21T12:06:20.101Z,65536.00
2018-10-21T12:07:20.338Z,65536.00
2018-10-21T12:08:20.480Z,65536.00
2018-10-21T12:09:20.632Z,65536.00
2018-10-21T12:10:20.809Z,65536.00
2018-10-21T12:11:21.088Z,65536.00
2018-10-21T12:12:21.371Z,65536.00
2018-10-21T12:13:21.559Z,65536.00
2018-10-21T12:14:21.741Z,65536.00
2018-10-21T12:15:21.918Z,65536.00
2018-10-21T12:16:22.282Z,65536.00
2018-10-21T12:17:22.451Z,65536.00
2018-10-21T12:18:22.583Z,65536.00
2018-10-21T12:19:22.705Z,65536.00
2018-10-21T12:20:22.806Z,65536.00
2018-10-21T12:21:22.933Z,65536.00
2018-10-21T12:22:23.125Z,65536.00
2018-10-21T12:23:23.251Z,65536.00
2018-10-21T12:24:23.360Z,65536.00
2018-10-21T12:25:23.571Z,65536.00
2018-10-21T12:26:23.626Z,65536.00
2018-10-21T12:27:23.736Z,65536.00
2018-10-21T12:28:23.858Z,65536.00
2018-10-21T12:29:23.929Z,65536.00
2018-10-21T12:30:24.028Z,65536.00
2018-10-21T12:31:24.152Z,65536.00
2018-10-21T12:32:24.205Z,65536.00
2018-10-21T12:33:24.256Z,65536.00
2018-10-21T12:34:24.277Z,65536.00
2018-10-21T12:35:24.284Z,65536.00
2018-10-21T12:36:24.984Z,65536.00
2018-10-21T12:37:24.835Z,65536.00
2018-10-21T12:38:25.190Z,65536.00
2018-10-21T12:39:25.694Z,65536.00
2018-10-21T12:40:25.948Z,9875.00
2018-10-21T12:41:26.379Z,9708.00
2018-10-21T12:42:26.663Z,65536.00